Poughkeepsie, New York
Current Conditions -  °F | °C
As of 9:53 AM on Sunday 23 Nov 2014 (Local Time) from KPOU Reporting Station
Clear Clear  
Wind Chill:   Ceiling: Unl
Heat Index:   Visibility: 10mi
Dew Point: -6°   Wind: 8mph
Humidity: 36%   Direction: 240°WSW
Pressure: 30.18"   Gusts: NA
Location:  41.71°N, 73.93°W
Report Text: KPOU 231453Z 24007KT 10SM CLR 09/M06 A3018 RMK AO2 SLP216 T00891056 50006
Loading
Personal Weather Stations






























Interactive Weather Map New forecast layout! Learn more

10-Day Weather Forecast

Advertisements
Track Severe Weather on mobile